createdAt,value
2022-12-12T00:01:28.213Z,10.02
2022-12-12T00:03:56.129Z,10.45
2022-12-12T00:06:24.635Z,10.32
2022-12-12T00:12:33.243Z,10.70
2022-12-12T00:15:00.613Z,9.60
2022-12-12T00:17:27.912Z,10.23
2022-12-12T00:20:02.235Z,10.90
2022-12-12T00:22:29.486Z,10.82
2022-12-12T00:24:56.692Z,10.82
2022-12-12T00:27:24.215Z,11.43
2022-12-12T00:29:55.826Z,10.13
2022-12-12T00:32:25.145Z,11.38
2022-12-12T00:34:52.485Z,10.70
2022-12-12T00:37:24.326Z,11.15
2022-12-12T00:39:51.619Z,10.60
2022-12-12T00:42:20.999Z,11.20
2022-12-12T00:44:48.225Z,11.27
2022-12-12T00:47:17.946Z,10.45
2022-12-12T00:49:45.194Z,9.93
2022-12-12T00:52:14.614Z,10.63
2022-12-12T00:54:44.285Z,10.95
2022-12-12T00:57:16.207Z,10.88
2022-12-12T00:59:45.949Z,12.25
2022-12-12T01:02:15.567Z,11.13
2022-12-12T01:04:42.904Z,10.88
2022-12-12T01:07:10.157Z,10.52
2022-12-12T01:09:39.582Z,10.55
2022-12-12T01:12:06.859Z,11.38
2022-12-12T01:14:34.090Z,10.13
2022-12-12T01:17:01.333Z,11.02
2022-12-12T01:19:28.545Z,10.40
2022-12-12T01:21:55.806Z,10.23
2022-12-12T01:24:25.201Z,10.18
2022-12-12T01:26:54.910Z,10.82
2022-12-12T01:29:22.123Z,10.20
2022-12-12T01:31:49.471Z,10.80
2022-12-12T01:34:18.965Z,10.70
2022-12-12T01:36:46.215Z,10.82
2022-12-12T01:39:13.446Z,11.10
2022-12-12T01:41:47.813Z,9.88
2022-12-12T01:44:43.668Z,10.73
2022-12-12T01:47:13.931Z,10.20
2022-12-12T01:49:47.245Z,10.30
2022-12-12T01:52:24.971Z,10.02
2022-12-12T01:54:56.686Z,11.05
2022-12-12T01:57:33.762Z,10.75
2022-12-12T02:00:06.248Z,11.13
2022-12-12T02:02:34.780Z,9.32
2022-12-12T02:05:09.994Z,10.45
2022-12-12T02:07:39.714Z,9.35
2022-12-12T02:10:07.425Z,9.18
2022-12-12T02:12:34.622Z,10.15
2022-12-12T02:15:02.609Z,9.10
2022-12-12T02:17:51.323Z,9.60
2022-12-12T02:20:39.681Z,9.38
2022-12-12T02:23:33.939Z,9.75
2022-12-12T02:26:10.063Z,9.55
2022-12-12T02:28:55.564Z,10.00
2022-12-12T02:31:28.380Z,9.60
2022-12-12T02:34:01.911Z,9.25
2022-12-12T02:36:47.586Z,10.00
2022-12-12T02:39:50.378Z,10.25
2022-12-12T02:42:49.720Z,10.05
2022-12-12T02:45:40.770Z,9.15
2022-12-12T02:48:23.945Z,9.90
2022-12-12T02:50:53.669Z,9.18
2022-12-12T02:53:23.070Z,9.18
2022-12-12T02:56:00.809Z,8.70
2022-12-12T02:58:31.032Z,9.18
2022-12-12T03:01:38.786Z,9.35
2022-12-12T03:04:43.232Z,9.40
2022-12-12T03:07:50.029Z,9.60
2022-12-12T03:10:46.503Z,9.45
2022-12-12T03:13:16.774Z,8.98
2022-12-12T03:16:11.577Z,9.52
2022-12-12T03:18:57.417Z,8.70
2022-12-12T03:21:36.953Z,9.57
2022-12-12T03:24:10.919Z,9.90
2022-12-12T03:26:55.272Z,9.68
2022-12-12T03:29:40.986Z,9.07
2022-12-12T03:32:13.170Z,9.75
2022-12-12T03:34:44.759Z,9.53
2022-12-12T03:37:17.895Z,9.05
2022-12-12T03:42:32.637Z,9.00
2022-12-12T03:45:10.864Z,9.35
2022-12-12T03:47:47.887Z,9.63
2022-12-12T03:50:23.261Z,9.43
2022-12-12T03:53:07.870Z,9.45
2022-12-12T03:55:49.493Z,10.38
2022-12-12T03:58:47.444Z,9.43
2022-12-12T04:01:18.935Z,9.27
2022-12-12T04:04:03.086Z,10.02
2022-12-12T04:06:44.439Z,10.05
2022-12-12T04:09:35.507Z,9.02
2022-12-12T04:12:37.575Z,9.73
2022-12-12T04:15:07.798Z,8.98
2022-12-12T04:17:43.439Z,8.35
2022-12-12T04:20:58.663Z,8.85
2022-12-12T04:23:47.606Z,9.10
2022-12-12T04:26:41.891Z,8.75
2022-12-12T04:29:31.561Z,8.65
2022-12-12T04:32:22.704Z,9.18
2022-12-12T04:35:08.207Z,9.10
2022-12-12T04:38:07.746Z,8.65
2022-12-12T04:40:46.666Z,9.63
2022-12-12T04:43:31.488Z,10.10
2022-12-12T04:46:13.769Z,9.23
2022-12-12T04:48:50.727Z,8.48
2022-12-12T04:51:33.941Z,9.00
2022-12-12T04:54:34.906Z,10.00
2022-12-12T04:57:08.797Z,8.95
2022-12-12T04:59:38.818Z,9.70
2022-12-12T05:02:32.661Z,9.68
2022-12-12T05:05:10.483Z,9.00
2022-12-12T05:07:41.149Z,9.60
2022-12-12T05:10:16.200Z,8.95
2022-12-12T05:12:44.932Z,9.10
2022-12-12T05:15:13.922Z,9.55
2022-12-12T05:18:06.098Z,9.23
2022-12-12T05:20:33.648Z,7.97
2022-12-12T05:23:04.092Z,9.38
2022-12-12T05:25:31.491Z,9.13
2022-12-12T05:27:58.940Z,8.18
2022-12-12T05:30:26.293Z,9.30
2022-12-12T05:32:53.835Z,9.05
2022-12-12T05:35:21.714Z,9.45
2022-12-12T05:37:52.367Z,8.38
2022-12-12T05:40:21.072Z,8.38
2022-12-12T05:42:48.401Z,9.82
2022-12-12T05:45:16.092Z,9.60
2022-12-12T05:47:46.301Z,8.18
2022-12-12T05:50:16.303Z,8.07
2022-12-12T05:52:43.655Z,8.32
2022-12-12T05:55:11.243Z,8.45
2022-12-12T05:57:40.903Z,8.68
2022-12-12T06:00:11.207Z,8.40
2022-12-12T06:02:41.552Z,8.10
2022-12-12T06:05:12.015Z,8.65
2022-12-12T06:07:44.268Z,8.80
2022-12-12T06:10:12.679Z,8.50
2022-12-12T06:12:40.950Z,7.88
2022-12-12T06:15:11.933Z,8.60
2022-12-12T06:17:42.908Z,8.55
2022-12-12T06:20:11.229Z,8.18
2022-12-12T06:22:39.776Z,9.27
2022-12-12T06:25:09.575Z,8.20
2022-12-12T06:27:38.765Z,8.48
2022-12-12T06:30:07.465Z,9.80
2022-12-12T06:32:36.422Z,9.45
2022-12-12T06:35:05.204Z,9.02
2022-12-12T06:37:33.387Z,9.45
2022-12-12T06:40:03.050Z,8.85
2022-12-12T06:42:36.293Z,8.05
2022-12-12T06:45:07.107Z,8.85
2022-12-12T06:47:34.396Z,8.40
2022-12-12T06:50:01.629Z,9.00
2022-12-12T06:52:28.844Z,9.23
2022-12-12T06:54:56.087Z,8.85
2022-12-12T06:57:23.272Z,8.60
2022-12-12T06:59:53.308Z,8.43
2022-12-12T07:02:24.527Z,8.30
2022-12-12T07:04:56.545Z,8.88
2022-12-12T07:07:25.996Z,8.85
2022-12-12T07:09:55.212Z,8.88
2022-12-12T07:12:24.993Z,9.05
2022-12-12T07:14:52.304Z,9.00
2022-12-12T07:17:19.520Z,8.75
2022-12-12T07:19:48.960Z,8.75
2022-12-12T07:22:16.216Z,8.60
2022-12-12T07:24:43.460Z,8.45
2022-12-12T07:27:10.725Z,8.13
2022-12-12T07:29:37.915Z,8.25
2022-12-12T07:32:05.206Z,7.72
2022-12-12T07:34:32.602Z,7.93
2022-12-12T07:37:03.374Z,7.75
2022-12-12T07:39:34.434Z,7.43
2022-12-12T07:42:01.652Z,7.68
2022-12-12T07:44:33.770Z,8.00
2022-12-12T07:47:01.055Z,11.97
2022-12-12T07:49:29.354Z,12.75
2022-12-12T07:51:56.590Z,11.98
2022-12-12T07:54:26.344Z,11.07
2022-12-12T07:56:53.549Z,9.65
2022-12-12T07:59:20.858Z,10.75
2022-12-12T08:01:50.643Z,10.52
2022-12-12T08:04:18.126Z,9.65
2022-12-12T08:06:54.122Z,9.25
2022-12-12T08:09:26.945Z,8.25
2022-12-12T08:11:58.599Z,9.00
2022-12-12T08:14:26.472Z,7.93
2022-12-12T08:16:56.323Z,8.57
2022-12-12T08:19:23.584Z,8.43
2022-12-12T08:21:53.443Z,7.40
2022-12-12T08:24:21.039Z,8.02
2022-12-12T08:26:53.174Z,7.65
2022-12-12T08:29:20.475Z,8.23
2022-12-12T08:31:47.736Z,8.38
2022-12-12T08:34:15.054Z,8.18
2022-12-12T08:36:42.240Z,8.13
2022-12-12T08:39:16.997Z,8.70
2022-12-12T08:41:48.246Z,8.90
2022-12-12T08:44:19.217Z,9.90
2022-12-12T08:46:50.002Z,9.20
2022-12-12T08:49:19.855Z,8.05
2022-12-12T08:51:47.040Z,9.95
2022-12-12T08:54:17.095Z,8.52
2022-12-12T08:56:44.333Z,9.20
2022-12-12T08:59:13.958Z,8.48
2022-12-12T09:01:44.001Z,9.52
2022-12-12T09:04:13.570Z,8.15
2022-12-12T09:06:40.864Z,8.55
2022-12-12T09:09:10.431Z,8.00
2022-12-12T09:11:40.021Z,8.60
2022-12-12T09:14:07.226Z,7.28
2022-12-12T09:16:36.971Z,7.13
2022-12-12T09:19:04.215Z,7.10
2022-12-12T09:21:31.513Z,6.43
2022-12-12T09:24:01.941Z,6.35
2022-12-12T09:26:34.089Z,6.15
2022-12-12T09:29:01.325Z,5.95
2022-12-12T09:31:28.568Z,6.22
2022-12-12T09:33:55.816Z,6.78
2022-12-12T09:36:25.399Z,6.75
2022-12-12T09:38:52.626Z,6.70
2022-12-12T09:41:24.481Z,6.82
2022-12-12T09:44:06.084Z,5.95
2022-12-12T09:46:35.432Z,5.85
2022-12-12T09:49:12.374Z,6.03
2022-12-12T09:51:44.051Z,6.30
2022-12-12T09:54:20.691Z,6.40
2022-12-12T09:56:53.843Z,7.03
2022-12-12T09:59:48.239Z,6.38
2022-12-12T10:02:36.599Z,6.93
2022-12-12T10:05:18.716Z,6.57
2022-12-12T10:08:03.884Z,7.07
2022-12-12T10:10:37.353Z,6.35
2022-12-12T10:18:22.945Z,6.70
2022-12-12T10:20:53.648Z,7.35
2022-12-12T10:23:45.973Z,6.78
2022-12-12T10:26:27.415Z,6.85
2022-12-12T10:29:06.077Z,6.90
2022-12-12T10:31:39.572Z,6.15
2022-12-12T10:37:04.333Z,6.03
2022-12-12T10:39:56.478Z,5.43
2022-12-12T10:42:48.088Z,6.38
2022-12-12T10:45:48.252Z,6.43
2022-12-12T10:48:15.555Z,6.57
2022-12-12T10:50:50.251Z,5.82
2022-12-12T10:53:20.075Z,6.60
2022-12-12T10:55:52.014Z,6.43
2022-12-12T10:58:24.180Z,6.18
2022-12-12T11:00:51.770Z,6.78
2022-12-12T11:03:33.163Z,6.88
2022-12-12T11:06:06.214Z,5.90
2022-12-12T11:08:35.774Z,6.07
2022-12-12T11:11:07.940Z,6.05
2022-12-12T11:14:01.060Z,6.10
2022-12-12T11:16:41.638Z,6.57
2022-12-12T11:19:20.038Z,5.90
2022-12-12T11:21:50.392Z,6.35
2022-12-12T11:24:23.677Z,5.82
2022-12-12T11:26:57.544Z,5.93
2022-12-12T11:29:44.896Z,6.03
2022-12-12T11:32:17.973Z,5.60
2022-12-12T11:34:55.843Z,5.45
2022-12-12T11:37:35.266Z,5.70
2022-12-12T11:40:02.767Z,6.57
2022-12-12T11:42:32.500Z,5.43
2022-12-12T11:45:21.196Z,5.38
2022-12-12T11:47:51.325Z,5.18
2022-12-12T11:50:24.138Z,5.70
2022-12-12T11:52:58.120Z,6.10
2022-12-12T11:55:39.224Z,5.63
2022-12-12T11:58:46.678Z,5.95
2022-12-12T12:01:39.731Z,6.30
2022-12-12T12:04:27.731Z,6.35
2022-12-12T12:07:17.755Z,5.45
2022-12-12T12:10:21.070Z,6.20
2022-12-12T12:13:21.832Z,5.57
2022-12-12T12:16:18.186Z,6.38
2022-12-12T12:19:26.558Z,6.43
2022-12-12T12:22:27.882Z,5.32
2022-12-12T12:25:06.805Z,6.03
2022-12-12T12:28:01.484Z,5.43
2022-12-12T12:30:51.597Z,5.47
2022-12-12T12:33:42.801Z,5.38
2022-12-12T12:36:21.510Z,5.60
2022-12-12T12:38:48.853Z,5.75
2022-12-12T12:42:13.618Z,5.80
2022-12-12T12:47:47.701Z,6.03
2022-12-12T12:50:43.825Z,5.35
2022-12-12T12:53:44.389Z,5.80
2022-12-12T12:56:26.750Z,5.40
2022-12-12T12:59:00.871Z,6.18
2022-12-12T13:01:36.705Z,5.90
2022-12-12T13:04:17.015Z,5.93
2022-12-12T13:06:58.820Z,5.55
2022-12-12T13:09:45.026Z,5.50
2022-12-12T13:12:29.708Z,5.15
2022-12-12T13:15:05.153Z,5.28
2022-12-12T13:17:58.521Z,5.63
2022-12-12T13:20:26.668Z,5.43
2022-12-12T13:23:11.504Z,4.63
2022-12-12T13:25:47.944Z,5.03
2022-12-12T13:28:27.208Z,5.35
2022-12-12T13:31:29.476Z,4.93
2022-12-12T13:34:04.266Z,4.93
2022-12-12T13:36:41.282Z,4.90
2022-12-12T13:39:27.312Z,5.00
2022-12-12T13:41:54.504Z,4.85
2022-12-12T13:44:45.246Z,4.60
2022-12-12T13:47:24.740Z,4.70
2022-12-12T13:50:09.729Z,4.72
2022-12-12T13:52:42.476Z,5.35
2022-12-12T13:55:12.991Z,4.68
2022-12-12T13:58:10.128Z,4.75
2022-12-12T14:00:43.505Z,4.85
2022-12-12T14:03:13.605Z,4.82
2022-12-12T14:05:43.596Z,5.22
2022-12-12T14:08:13.920Z,4.57
2022-12-12T14:10:54.509Z,5.10
2022-12-12T14:13:21.681Z,4.60
2022-12-12T14:16:07.414Z,5.25
2022-12-12T14:18:57.590Z,4.95
2022-12-12T14:21:45.951Z,4.80
2022-12-12T14:24:34.858Z,4.80
2022-12-12T14:27:03.737Z,4.95
2022-12-12T14:29:33.620Z,4.63
2022-12-12T14:32:13.277Z,4.38
2022-12-12T14:35:15.923Z,4.80
2022-12-12T14:38:04.386Z,4.63
2022-12-12T14:40:39.220Z,4.70
2022-12-12T14:43:21.954Z,5.35
2022-12-12T14:45:50.045Z,5.90
2022-12-12T14:48:30.890Z,5.32
2022-12-12T14:50:58.154Z,4.95
2022-12-12T14:53:57.680Z,4.70
2022-12-12T14:56:47.734Z,4.80
2022-12-12T14:59:26.440Z,4.53
2022-12-12T15:02:05.195Z,5.13
2022-12-12T15:04:38.839Z,5.93
2022-12-12T15:07:21.383Z,5.43
2022-12-12T15:09:49.280Z,5.85
2022-12-12T15:12:23.141Z,5.38
2022-12-12T15:14:54.728Z,5.28
2022-12-12T15:17:40.447Z,5.28
2022-12-12T15:20:19.481Z,5.55
2022-12-12T15:23:00.543Z,5.75
2022-12-12T15:25:34.401Z,5.28
2022-12-12T15:28:02.449Z,5.78
2022-12-12T15:30:43.609Z,5.97
2022-12-12T15:33:23.665Z,5.38
2022-12-12T15:36:01.545Z,5.88
2022-12-12T15:38:32.898Z,6.05
2022-12-12T15:41:06.680Z,5.10
2022-12-12T15:43:39.020Z,5.82
2022-12-12T15:46:18.296Z,4.93
2022-12-12T15:48:49.504Z,5.63
2022-12-12T15:51:24.741Z,5.72
2022-12-12T15:53:55.346Z,5.30
2022-12-12T15:56:28.929Z,5.18
2022-12-12T15:59:07.222Z,5.28
2022-12-12T16:01:34.702Z,5.38
2022-12-12T16:04:06.602Z,5.82
2022-12-12T16:06:35.984Z,6.00
2022-12-12T16:09:18.676Z,6.43
2022-12-12T16:11:47.049Z,6.57
2022-12-12T16:14:43.163Z,6.50
2022-12-12T16:17:20.476Z,5.82
2022-12-12T16:20:06.572Z,6.03
2022-12-12T16:22:48.317Z,5.93
2022-12-12T16:25:32.613Z,6.45
2022-12-12T16:28:10.130Z,6.90
2022-12-12T16:30:40.684Z,6.65
2022-12-12T16:33:40.293Z,7.00
2022-12-12T16:36:13.178Z,6.72
2022-12-12T16:38:41.112Z,6.75
2022-12-12T16:41:15.658Z,6.47
2022-12-12T16:43:43.354Z,6.53
2022-12-12T16:46:21.813Z,6.63
2022-12-12T16:48:50.201Z,6.40
2022-12-12T16:51:28.390Z,6.72
2022-12-12T16:54:03.389Z,6.57
2022-12-12T16:56:30.870Z,6.90
2022-12-12T16:58:58.152Z,7.13
2022-12-12T17:01:27.555Z,7.57
2022-12-12T17:03:54.939Z,6.97
2022-12-12T17:06:22.211Z,8.20
2022-12-12T17:08:49.440Z,7.53
2022-12-12T17:11:16.664Z,7.50
2022-12-12T17:13:49.096Z,8.18
2022-12-12T17:16:16.511Z,7.37
2022-12-12T17:18:43.826Z,9.07
2022-12-12T17:21:11.132Z,8.98
2022-12-12T17:23:39.845Z,8.73
2022-12-12T17:26:11.761Z,8.45
2022-12-12T17:28:39.026Z,9.60
2022-12-12T17:31:09.754Z,9.10
2022-12-12T17:33:49.855Z,8.88
2022-12-12T17:36:20.179Z,8.38
2022-12-12T17:38:47.993Z,8.25
2022-12-12T17:41:15.652Z,8.43
2022-12-12T17:43:48.259Z,8.07
2022-12-12T17:46:20.672Z,9.75
2022-12-12T17:48:50.689Z,10.07
2022-12-12T17:51:22.089Z,9.90
2022-12-12T17:53:51.116Z,10.27
2022-12-12T17:56:23.134Z,10.43
2022-12-12T17:58:51.186Z,11.40
2022-12-12T18:01:31.595Z,11.65
2022-12-12T18:04:00.756Z,11.43
2022-12-12T18:06:30.505Z,13.60
2022-12-12T18:08:58.251Z,14.18
2022-12-12T18:11:31.490Z,13.40
2022-12-12T18:14:02.288Z,12.18
2022-12-12T18:16:33.854Z,11.57
2022-12-12T18:19:01.755Z,11.45
2022-12-12T18:24:22.054Z,12.93
2022-12-12T18:26:53.865Z,11.82
2022-12-12T18:29:24.290Z,12.35
2022-12-12T18:31:51.837Z,13.85
2022-12-12T18:34:19.596Z,13.65
2022-12-12T18:36:46.985Z,14.13
2022-12-12T18:39:16.456Z,14.10
2022-12-12T18:41:46.170Z,13.32
2022-12-12T18:44:15.352Z,13.05
2022-12-12T18:46:43.901Z,13.35
2022-12-12T18:49:15.668Z,14.07
2022-12-12T18:51:45.413Z,12.60
2022-12-12T18:54:15.807Z,14.43
2022-12-12T18:56:45.293Z,15.43
2022-12-12T18:59:15.399Z,16.40
2022-12-12T19:01:45.556Z,17.00
2022-12-12T19:04:22.862Z,17.15
2022-12-12T19:06:50.874Z,17.88
2022-12-12T19:09:19.788Z,18.23
2022-12-12T19:11:49.905Z,17.80
2022-12-12T19:14:21.359Z,19.30
2022-12-12T19:16:48.761Z,17.20
2022-12-12T19:19:18.925Z,17.33
2022-12-12T19:21:46.439Z,17.58
2022-12-12T19:24:16.655Z,17.25
2022-12-12T19:26:44.837Z,17.70
2022-12-12T19:29:15.827Z,17.85
2022-12-12T19:31:46.142Z,17.75
2022-12-12T19:34:15.770Z,17.30
2022-12-12T19:36:43.941Z,17.17
2022-12-12T19:39:12.597Z,17.63
2022-12-12T19:41:40.048Z,17.05
2022-12-12T19:44:12.469Z,16.38
2022-12-12T19:46:42.049Z,17.83
2022-12-12T19:49:13.477Z,19.70
2022-12-12T19:51:45.402Z,17.77
2022-12-12T19:54:18.448Z,18.27
2022-12-12T19:56:46.744Z,17.50
2022-12-12T19:59:16.257Z,20.25
2022-12-12T20:01:44.071Z,18.27
2022-12-12T20:04:18.704Z,18.13
2022-12-12T20:06:47.638Z,18.02
2022-12-12T20:09:28.834Z,18.00
2022-12-12T20:12:00.393Z,18.20
2022-12-12T20:14:30.322Z,18.95
2022-12-12T20:17:02.401Z,18.77
2022-12-12T20:19:34.298Z,20.20
2022-12-12T20:22:04.302Z,18.58
2022-12-12T20:24:33.390Z,19.08
2022-12-12T20:27:03.469Z,18.92
2022-12-12T20:29:31.375Z,17.92
2022-12-12T20:31:59.952Z,18.30
2022-12-12T20:34:28.327Z,18.25
2022-12-12T20:36:58.722Z,16.77
2022-12-12T20:39:28.507Z,17.60
2022-12-12T20:41:57.440Z,16.35
2022-12-12T20:44:25.718Z,17.17
2022-12-12T20:46:55.312Z,17.70
2022-12-12T20:49:24.177Z,18.13
2022-12-12T20:51:57.036Z,19.02
2022-12-12T20:54:26.540Z,17.80
2022-12-12T20:56:54.650Z,16.50
2022-12-12T20:59:22.584Z,17.05
2022-12-12T21:01:50.152Z,16.20
2022-12-12T21:04:17.554Z,15.85
2022-12-12T21:06:49.931Z,15.40
2022-12-12T21:09:25.041Z,11.52
2022-12-12T21:11:58.525Z,16.02
2022-12-12T21:14:30.993Z,17.23
2022-12-12T21:16:58.376Z,18.40
2022-12-12T21:19:25.598Z,18.48
2022-12-12T21:21:53.729Z,19.25
2022-12-12T21:24:24.011Z,18.77
2022-12-12T21:26:51.262Z,16.35
2022-12-12T21:29:21.127Z,16.10
2022-12-12T21:31:51.871Z,17.42
2022-12-12T21:34:23.397Z,16.40
2022-12-12T21:36:54.851Z,14.65
2022-12-12T21:39:27.164Z,14.57
2022-12-12T21:41:58.676Z,15.85
2022-12-12T21:44:26.494Z,17.55
2022-12-12T21:46:58.193Z,17.20
2022-12-12T21:49:31.839Z,16.58
2022-12-12T21:52:01.937Z,16.88
2022-12-12T21:54:30.485Z,15.32
2022-12-12T21:57:01.162Z,15.18
2022-12-12T21:59:31.020Z,15.30
2022-12-12T22:02:04.450Z,13.70
2022-12-12T22:04:31.963Z,14.25
2022-12-12T22:06:59.239Z,13.27
2022-12-12T22:09:26.625Z,13.43
2022-12-12T22:12:03.268Z,12.63
2022-12-12T22:14:34.953Z,14.05
2022-12-12T22:17:06.237Z,14.23
2022-12-12T22:19:34.601Z,14.60
2022-12-12T22:22:02.156Z,15.68
2022-12-12T22:24:32.329Z,16.15
2022-12-12T22:27:03.544Z,14.73
2022-12-12T22:29:33.278Z,15.10
2022-12-12T22:32:03.304Z,13.80
2022-12-12T22:34:30.528Z,13.73
2022-12-12T22:36:57.733Z,15.18
2022-12-12T22:39:27.388Z,15.40
2022-12-12T22:41:55.784Z,14.88
2022-12-12T22:44:27.903Z,14.98
2022-12-12T22:46:56.113Z,15.90
2022-12-12T22:49:27.980Z,15.05
2022-12-12T22:51:58.590Z,14.70
2022-12-12T22:54:26.632Z,15.48
2022-12-12T22:56:53.937Z,14.90
2022-12-12T22:59:23.551Z,15.85
2022-12-12T23:01:50.874Z,15.45
2022-12-12T23:04:18.211Z,14.88
2022-12-12T23:06:48.936Z,15.93
2022-12-12T23:09:25.314Z,15.80
2022-12-12T23:11:58.834Z,15.93
2022-12-12T23:16:56.101Z,16.52
2022-12-12T23:19:27.180Z,16.60
2022-12-12T23:21:57.067Z,15.90
2022-12-12T23:24:25.131Z,15.32
2022-12-12T23:26:59.391Z,16.38
2022-12-12T23:29:28.190Z,15.82
2022-12-12T23:31:58.618Z,15.38
2022-12-12T23:34:29.146Z,15.57
2022-12-12T23:36:57.648Z,15.15
2022-12-12T23:39:27.253Z,16.95
2022-12-12T23:41:57.079Z,16.52
2022-12-12T23:44:32.964Z,17.13
2022-12-12T23:47:03.261Z,15.75
2022-12-12T23:49:33.709Z,16.15
2022-12-12T23:52:02.884Z,15.70
2022-12-12T23:54:35.108Z,15.60
2022-12-12T23:57:05.120Z,12.60
2022-12-12T23:59:39.943Z,16.13
